Time;durP1;ratioP1;P1;durP2;ratioP2;P2;SDS_P1;SDS_P2;PMS_P1;PMS_P2;Temp;Humidity;BMP_temperature;BMP_pressure;BME280_temperature;BME280_humidity;BME280_pressure;Samples;Min_cycle;Max_cycle;Signal;HPM_P1;HPM_P2
2024/01/14 00:00:06;;;;;;;;;;;;;;;1.05;100.00;101624.56;6270844;22;19957;-81
2024/01/14 00:02:31;;;;;;;;;;;;;;;1.04;100.00;101623.69;6268161;22;19907;-80
2024/01/14 00:04:57;;;;;;;;;;;;;;;1.04;100.00;101607.38;6268609;22;19933;-80
2024/01/14 00:07:23;;;;;;;;;;;;;;;1.05;100.00;101619.41;6240923;22;20341;-80
2024/01/14 00:09:48;;;;;;;;;;;;;;;1.06;100.00;101626.34;6268315;22;19933;-80
2024/01/14 00:12:13;;;;;;;;;;;;;;;1.05;100.00;101624.56;6270173;22;20333;-80
2024/01/14 00:14:38;;;;;;;;;;;;;;;1.04;100.00;101623.69;6268260;22;20342;-80
2024/01/14 00:17:04;;;;;;;;;;;;;;;1.06;100.00;101616.09;6268188;22;19903;-81
2024/01/14 00:19:29;;;;;;;;;;;;;;;1.06;100.00;101610.03;6268506;22;19961;-80
2024/01/14 00:21:54;;;;;;;;;;;;;;;1.07;100.00;101612.72;6269440;22;19903;-81
2024/01/14 00:24:20;;;;;;;;;;;;;;;1.07;100.00;101610.16;6270884;22;19929;-81
2024/01/14 00:26:45;;;;;;;;;;;;;;;1.08;100.00;101614.50;6270329;22;19937;-81
2024/01/14 00:29:10;;;;;;;;;;;;;;;1.09;100.00;101607.72;6240759;22;19986;-81
2024/01/14 00:31:35;;;;;;;;;;;;;;;1.09;100.00;101611.19;6269369;22;19903;-80
2024/01/14 00:34:01;;;;;;;;;;;;;;;1.08;100.00;101609.38;6269291;22;19903;-80
2024/01/14 00:36:26;;;;;;;;;;;;;;;1.09;100.00;101600.03;6270347;22;19960;-80
2024/01/14 00:38:51;;;;;;;;;;;;;;;1.09;100.00;101602.59;6243588;22;19992;-80
2024/01/14 00:41:16;;;;;;;;;;;;;;;1.09;100.00;101600.91;6269948;22;19903;-81
2024/01/14 00:43:42;;;;;;;;;;;;;;;1.10;100.00;101577.03;6271371;22;20318;-80
2024/01/14 00:46:08;;;;;;;;;;;;;;;1.10;100.00;101578.69;6270427;22;19911;-81
2024/01/14 00:48:33;;;;;;;;;;;;;;;1.10;100.00;101574.47;6245464;22;19937;-81
2024/01/14 00:50:58;;;;;;;;;;;;;;;1.10;100.00;101579.63;6270998;22;19925;-81
2024/01/14 00:53:24;;;;;;;;;;;;;;;1.11;100.00;101577.94;6271342;22;19953;-81
2024/01/14 00:55:50;;;;;;;;;;;;;;;1.11;100.00;101583.94;6270802;22;19907;-80
2024/01/14 00:58:15;;;;;;;;;;;;;;;1.10;100.00;101584.75;6270464;22;20424;-80
2024/01/14 01:00:41;;;;;;;;;;;;;;;1.12;100.00;101585.75;6270336;22;19907;-81
2024/01/14 01:03:06;;;;;;;;;;;;;;;1.12;100.00;101572.91;6243330;22;19907;-80
2024/01/14 01:05:32;;;;;;;;;;;;;;;1.14;100.00;101573.91;6271551;22;19907;-81
2024/01/14 01:07:57;;;;;;;;;;;;;;;1.14;100.00;101568.75;6269464;22;19913;-81
2024/01/14 01:10:22;;;;;;;;;;;;;;;1.15;100.00;101565.41;6270020;22;20275;-81
2024/01/14 01:12:47;;;;;;;;;;;;;;;1.17;100.00;101550.13;6242353;22;19915;-81
2024/01/14 01:15:13;;;;;;;;;;;;;;;1.16;100.00;101559.53;6244884;22;19907;-81
2024/01/14 01:17:38;;;;;;;;;;;;;;;1.17;100.00;101555.25;6269511;22;19918;-80
2024/01/14 01:20:05;;;;;;;;;;;;;;;1.18;100.00;101552.81;6269902;22;19987;-81
2024/01/14 01:22:30;;;;;;;;;;;;;;;1.19;100.00;101557.16;6269961;22;19903;-80
2024/01/14 01:24:55;;;;;;;;;;;;;;;1.17;100.00;101553.63;6271447;22;20343;-81
2024/01/14 01:27:21;;;;;;;;;;;;;;;1.18;100.00;101545.09;6269193;22;19903;-81
2024/01/14 01:29:46;;;;;;;;;;;;;;;1.19;100.00;101551.16;6246755;22;19914;-80
2024/01/14 01:32:11;;;;;;;;;;;;;;;1.19;100.00;101548.59;6269925;22;19907;-80
2024/01/14 01:34:37;;;;;;;;;;;;;;;1.20;100.00;101561.53;6271920;22;19895;-80
2024/01/14 01:37:02;;;;;;;;;;;;;;;1.19;100.00;101557.16;6247211;22;19907;-81
2024/01/14 01:39:28;;;;;;;;;;;;;;;1.20;100.00;101552.91;6246863;22;19907;-80
2024/01/14 01:41:53;;;;;;;;;;;;;;;1.19;100.00;101557.16;6273051;22;19918;-80
2024/01/14 01:44:18;;;;;;;;;;;;;;;1.18;100.00;101552.81;6273206;22;19965;-81
2024/01/14 01:46:43;;;;;;;;;;;;;;;1.17;100.00;101542.44;6273126;22;19907;-81
2024/01/14 01:49:10;;;;;;;;;;;;;;;1.15;100.00;101544.88;6274693;22;19903;-81
2024/01/14 01:51:36;;;;;;;;;;;;;;;1.15;100.00;101538.88;6272531;22;19905;-80
2024/01/14 01:54:01;;;;;;;;;;;;;;;1.13;100.00;101538.75;6273936;22;20344;-80
2024/01/14 01:56:27;;;;;;;;;;;;;;;1.10;100.00;101535.97;6274043;22;19914;-81
2024/01/14 01:58:53;;;;;;;;;;;;;;;1.09;100.00;101535.88;6273883;22;19911;-81
2024/01/14 02:01:21;;;;;;;;;;;;;;;1.08;100.00;101537.53;6247137;22;19903;-81
2024/01/14 02:03:47;;;;;;;;;;;;;;;1.08;100.00;101531.50;6274322;22;19910;-80
2024/01/14 02:06:14;;;;;;;;;;;;;;;1.09;100.00;101525.59;6274144;22;19907;-80
2024/01/14 02:08:39;;;;;;;;;;;;;;;1.08;100.00;101526.38;6274185;22;19903;-80
2024/01/14 02:11:05;;;;;;;;;;;;;;;1.09;100.00;101525.59;6274370;22;20313;-80
2024/01/14 02:13:30;;;;;;;;;;;;;;;1.08;100.00;101527.25;6272427;22;19910;-81
2024/01/14 02:15:55;;;;;;;;;;;;;;;1.10;100.00;101523.16;6273730;22;20349;-81
2024/01/14 02:18:20;;;;;;;;;;;;;;;1.10;100.00;101515.44;6243287;22;21183;-80
2024/01/14 02:20:46;;;;;;;;;;;;;;;1.11;100.00;101518.91;6247020;22;20288;-80
2024/01/14 02:23:13;;;;;;;;;;;;;;;1.10;100.00;101520.59;6274556;22;19908;-81
2024/01/14 02:25:38;;;;;;;;;;;;;;;1.11;100.00;101512.06;6247070;22;20278;-81
2024/01/14 02:28:04;;;;;;;;;;;;;;;1.13;100.00;101518.22;6273181;22;19938;-80
2024/01/14 02:30:29;;;;;;;;;;;;;;;1.13;100.00;101522.44;6274587;22;19903;-81
2024/01/14 02:32:55;;;;;;;;;;;;;;;1.12;100.00;101511.31;6273971;22;19918;-80
2024/01/14 02:35:20;;;;;;;;;;;;;;;1.11;100.00;101509.50;6270405;22;19907;-81
2024/01/14 02:37:47;;;;;;;;;;;;;;;1.11;100.00;101508.63;6269686;22;19953;-80
2024/01/14 02:40:12;;;;;;;;;;;;;;;1.11;100.00;101501.81;6242706;22;19903;-79
2024/01/14 02:42:38;;;;;;;;;;;;;;;1.10;100.00;101494.00;6269026;22;20595;-81
2024/01/14 02:45:03;;;;;;;;;;;;;;;1.10;100.00;101494.00;6270029;22;19910;-80
2024/01/14 02:47:29;;;;;;;;;;;;;;;1.09;100.00;101485.44;6242825;22;19903;-80
2024/01/14 02:49:54;;;;;;;;;;;;;;;1.08;100.00;101475.94;6269568;22;19903;-81
2024/01/14 02:52:19;;;;;;;;;;;;;;;1.10;100.00;101468.34;6270676;22;19938;-81
2024/01/14 02:54:44;;;;;;;;;;;;;;;1.09;100.00;101464.88;6269459;22;19903;-81
2024/01/14 02:57:10;;;;;;;;;;;;;;;1.09;100.00;101464.00;6268685;22;19903;-81
2024/01/14 02:59:35;;;;;;;;;;;;;;;1.09;100.00;101466.59;6270021;22;20627;-80
2024/01/14 03:02:01;;;;;;;;;;;;;;;1.09;100.00;101472.59;6271221;22;19903;-81
2024/01/14 03:04:27;;;;;;;;;;;;;;;1.09;100.00;101462.31;6273671;22;19953;-81
2024/01/14 03:06:52;;;;;;;;;;;;;;;1.08;100.00;101447.69;6246982;22;19903;-81
2024/01/14 03:09:17;;;;;;;;;;;;;;;1.07;100.00;101453.59;6245178;22;19899;-81
2024/01/14 03:11:43;;;;;;;;;;;;;;;1.06;100.00;101446.72;6269663;22;19925;-81
2024/01/14 03:14:08;;;;;;;;;;;;;;;1.07;100.00;101442.47;6268507;22;20492;-81
2024/01/14 03:16:33;;;;;;;;;;;;;;;1.06;100.00;101438.09;6269068;22;19976;-81
2024/01/14 03:18:58;;;;;;;;;;;;;;;1.04;100.00;101440.56;6242256;22;19915;-80
2024/01/14 03:21:24;;;;;;;;;;;;;;;1.03;100.00;101441.38;6243512;22;19985;-81
2024/01/14 03:23:49;;;;;;;;;;;;;;;1.04;100.00;101443.13;6271288;22;19987;-81
2024/01/14 03:26:14;;;;;;;;;;;;;;;1.01;100.00;101438.69;6247129;22;20486;-81
2024/01/14 03:28:39;;;;;;;;;;;;;;;1.01;100.00;101443.81;6273308;22;20540;-80
2024/01/14 03:31:05;;;;;;;;;;;;;;;1.01;100.00;101437.78;6270937;22;19922;-81
2024/01/14 03:33:30;;;;;;;;;;;;;;;1.00;100.00;101429.19;6271058;22;20336;-81
2024/01/14 03:35:55;;;;;;;;;;;;;;;0.99;100.00;101423.97;6268576;22;19907;-81
2024/01/14 03:38:20;;;;;;;;;;;;;;;0.99;100.00;101423.97;6267977;22;20322;-80
2024/01/14 03:40:46;;;;;;;;;;;;;;;0.97;100.00;101418.72;6270846;22;20246;-81
2024/01/14 03:43:11;;;;;;;;;;;;;;;0.95;100.00;101417.69;6268293;22;19915;-81
2024/01/14 03:45:37;;;;;;;;;;;;;;;0.96;100.00;101421.19;6273113;22;19907;-81
2024/01/14 03:48:02;;;;;;;;;;;;;;;0.96;100.00;101419.50;6270681;22;19922;-80
2024/01/14 03:50:27;;;;;;;;;;;;;;;0.94;100.00;101410.81;6273675;22;19914;-81
2024/01/14 03:52:52;;;;;;;;;;;;;;;0.93;100.00;101408.09;6272134;22;20361;-80
2024/01/14 03:55:18;;;;;;;;;;;;;;;0.91;100.00;101405.44;6268205;22;19986;-80
2024/01/14 03:57:43;;;;;;;;;;;;;;;0.92;100.00;101414.03;6242709;22;19907;-80
2024/01/14 04:00:10;;;;;;;;;;;;;;;0.92;100.00;101401.22;6242661;22;19907;-81
2024/01/14 04:02:35;;;;;;;;;;;;;;;0.92;100.00;101402.09;6268494;22;19933;-81
2024/01/14 04:05:00;;;;;;;;;;;;;;;0.93;100.00;101402.97;6268769;22;20027;-80
2024/01/14 04:07:26;;;;;;;;;;;;;;;0.92;100.00;101401.22;6268713;22;19915;-81
2024/01/14 04:09:51;;;;;;;;;;;;;;;0.90;100.00;101395.97;6271816;22;19907;-80
2024/01/14 04:12:16;;;;;;;;;;;;;;;0.90;100.00;101395.97;6243327;22;19965;-81
2024/01/14 04:14:43;;;;;;;;;;;;;;;0.89;100.00;101391.63;6244098;22;19953;-81
2024/01/14 04:17:08;;;;;;;;;;;;;;;0.88;100.00;101383.81;6243298;22;19910;-80
2024/01/14 04:19:35;;;;;;;;;;;;;;;0.89;100.00;101390.75;6271502;22;19907;-81
2024/01/14 04:22:00;;;;;;;;;;;;;;;0.87;100.00;101385.50;6270501;22;20329;-81
2024/01/14 04:24:25;;;;;;;;;;;;;;;0.89;100.00;101393.31;6270024;22;19958;-81
2024/01/14 04:26:50;;;;;;;;;;;;;;;0.85;100.00;101385.38;6243739;22;19907;-81
2024/01/14 04:29:15;;;;;;;;;;;;;;;0.85;100.00;101390.53;6270868;22;19918;-81
2024/01/14 04:31:41;;;;;;;;;;;;;;;0.84;100.00;101388.72;6270384;22;20349;-81
2024/01/14 04:34:06;;;;;;;;;;;;;;;0.85;100.00;101384.47;6270469;22;20503;-81
2024/01/14 04:36:31;;;;;;;;;;;;;;;0.85;100.00;101387.97;6272962;22;19907;-81
2024/01/14 04:38:56;;;;;;;;;;;;;;;0.83;100.00;101384.38;6273577;22;19946;-81
2024/01/14 04:41:22;;;;;;;;;;;;;;;0.82;100.00;101385.16;6245222;22;20557;-80
2024/01/14 04:43:47;;;;;;;;;;;;;;;0.80;100.00;101376.47;6270074;22;20227;-81
2024/01/14 04:46:12;;;;;;;;;;;;;;;0.80;100.00;101381.59;6243897;22;19953;-81
2024/01/14 04:48:37;;;;;;;;;;;;;;;0.80;100.00;101376.47;6271431;22;19946;-80
2024/01/14 04:51:03;;;;;;;;;;;;;;;0.79;100.00;101369.53;6274760;22;19907;-80
2024/01/14 04:53:28;;;;;;;;;;;;;;;0.80;100.00;101371.34;6243393;22;19971;-81
2024/01/14 04:55:53;;;;;;;;;;;;;;;0.80;100.00;101368.75;6244379;22;19914;-80
2024/01/14 04:58:19;;;;;;;;;;;;;;;0.78;100.00;101362.66;6271111;22;20392;-81
2024/01/14 05:00:44;;;;;;;;;;;;;;;0.79;100.00;101360.97;6273776;22;19907;-81
2024/01/14 05:03:10;;;;;;;;;;;;;;;0.78;100.00;101352.38;6270883;22;19907;-80
2024/01/14 05:05:35;;;;;;;;;;;;;;;0.78;100.00;101362.66;6270264;22;19915;-81
2024/01/14 05:08:00;;;;;;;;;;;;;;;0.77;100.00;101359.94;6272388;22;19936;-80
2024/01/14 05:10:25;;;;;;;;;;;;;;;0.76;100.00;101353.94;6272232;22;19938;-81
2024/01/14 05:12:51;;;;;;;;;;;;;;;0.76;100.00;101347.94;6247986;22;19914;-81
2024/01/14 05:15:16;;;;;;;;;;;;;;;0.74;100.00;101342.69;6247891;22;19915;-81
2024/01/14 05:17:41;;;;;;;;;;;;;;;0.74;100.00;101339.22;6274821;22;20337;-81
2024/01/14 05:20:08;;;;;;;;;;;;;;;0.73;100.00;101337.44;6273986;22;19931;-81
2024/01/14 05:22:34;;;;;;;;;;;;;;;0.71;100.00;101339.91;6273705;22;19911;-80
2024/01/14 05:24:59;;;;;;;;;;;;;;;0.69;100.00;101342.34;6274258;22;19903;-80
2024/01/14 05:27:24;;;;;;;;;;;;;;;0.70;100.00;101338.13;6272192;22;19978;-80
2024/01/14 05:29:49;;;;;;;;;;;;;;;0.69;100.00;101344.03;6269411;22;19903;-80
2024/01/14 05:32:15;;;;;;;;;;;;;;;0.67;100.00;101337.91;6270456;22;20230;-81
2024/01/14 05:34:41;;;;;;;;;;;;;;;0.66;100.00;101329.28;6243299;22;20324;-81
2024/01/14 05:37:06;;;;;;;;;;;;;;;0.65;100.00;101330.09;6242694;22;19982;-82
2024/01/14 05:39:32;;;;;;;;;;;;;;;0.64;100.00;101324.88;6272944;22;19950;-81
2024/01/14 05:41:58;;;;;;;;;;;;;;;0.64;100.00;101323.19;6246038;22;19911;-81
2024/01/14 05:44:23;;;;;;;;;;;;;;;0.63;100.00;101326.53;6274156;22;19911;-81
2024/01/14 05:46:50;;;;;;;;;;;;;;;0.64;100.00;101319.75;6247659;22;19919;-81
2024/01/14 05:49:15;;;;;;;;;;;;;;;0.62;100.00;101319.63;6245779;22;19956;-81
2024/01/14 05:51:40;;;;;;;;;;;;;;;0.61;100.00;101316.94;6247359;22;19903;-81
2024/01/14 05:54:05;;;;;;;;;;;;;;;0.60;100.00;101317.72;6274256;22;19910;-81
2024/01/14 05:56:31;;;;;;;;;;;;;;;0.59;100.00;101308.25;6273850;22;19910;-81
2024/01/14 05:58:56;;;;;;;;;;;;;;;0.59;100.00;101308.25;6273116;22;19968;-81
2024/01/14 06:01:21;;;;;;;;;;;;;;;0.57;100.00;101299.56;6247018;22;19925;-81
2024/01/14 06:03:46;;;;;;;;;;;;;;;0.57;100.00;101304.69;6274208;22;19907;-82
2024/01/14 06:06:12;;;;;;;;;;;;;;;0.56;100.00;101290.97;6274018;22;20300;-81
2024/01/14 06:08:37;;;;;;;;;;;;;;;0.58;100.00;101291.06;6273931;22;19914;-81
2024/01/14 06:11:03;;;;;;;;;;;;;;;0.58;100.00;101283.38;6273504;22;20254;-81
2024/01/14 06:13:29;;;;;;;;;;;;;;;0.58;100.00;101291.06;6274325;22;19911;-80
2024/01/14 06:15:54;;;;;;;;;;;;;;;0.58;100.00;101288.50;6273582;22;19910;-81
2024/01/14 06:18:19;;;;;;;;;;;;;;;0.58;100.00;101286.84;6273582;22;19976;-81
2024/01/14 06:20:45;;;;;;;;;;;;;;;0.58;100.00;101288.50;6272284;22;19911;-81
2024/01/14 06:23:10;;;;;;;;;;;;;;;0.58;100.00;101284.28;6274185;22;19909;-80
2024/01/14 06:25:35;;;;;;;;;;;;;;;0.58;100.00;101284.28;6273119;22;19945;-81
2024/01/14 06:28:02;;;;;;;;;;;;;;;0.57;100.00;101276.50;6246092;22;19954;-81
2024/01/14 06:30:27;;;;;;;;;;;;;;;0.57;100.00;101268.81;6272091;22;19914;-81
2024/01/14 06:32:55;;;;;;;;;;;;;;;0.57;100.00;101267.13;6245584;22;19903;-82
2024/01/14 06:35:21;;;;;;;;;;;;;;;0.56;100.00;101270.44;6271919;22;19903;-81
2024/01/14 06:37:47;;;;;;;;;;;;;;;0.56;100.00;101267.88;6269898;22;20407;-81
2024/01/14 06:40:12;;;;;;;;;;;;;;;0.56;100.00;101256.75;6268762;22;20284;-81
2024/01/14 06:42:37;;;;;;;;;;;;;;;0.56;100.00;101261.88;6268880;22;19915;-81
2024/01/14 06:45:03;;;;;;;;;;;;;;;0.54;100.00;101264.34;6269008;22;19907;-80
2024/01/14 06:47:28;;;;;;;;;;;;;;;0.54;100.00;101260.88;6244803;22;19903;-80
2024/01/14 06:49:54;;;;;;;;;;;;;;;0.55;100.00;101257.53;6270802;22;19903;-80
2024/01/14 06:52:22;;;;;;;;;;;;;;;0.55;100.00;101247.28;6270050;22;20318;-80
2024/01/14 06:54:47;;;;;;;;;;;;;;;0.54;100.00;101248.97;6272114;22;19904;-81
2024/01/14 06:57:13;;;;;;;;;;;;;;;0.55;100.00;101250.75;6242838;22;20009;-81
2024/01/14 06:59:42;;;;;;;;;;;;;;;0.55;100.00;101244.72;6268563;22;19911;-81
2024/01/14 07:02:07;;;;;;;;;;;;;;;0.54;100.00;101242.91;6268833;22;19911;-81
2024/01/14 07:04:32;;;;;;;;;;;;;;;0.55;100.00;101237.94;6268606;22;19980;-80
2024/01/14 07:06:57;;;;;;;;;;;;;;;0.55;100.00;101234.44;6272540;22;19903;-80
2024/01/14 07:09:23;;;;;;;;;;;;;;;0.54;100.00;101243.81;6272505;22;20375;-80
2024/01/14 07:11:48;;;;;;;;;;;;;;;0.54;100.00;101237.78;6246884;22;19976;-80
2024/01/14 07:14:13;;;;;;;;;;;;;;;0.54;100.00;101236.13;6273827;22;20292;-81
2024/01/14 07:16:38;;;;;;;;;;;;;;;0.54;100.00;101233.56;6273987;22;19910;-80
2024/01/14 07:19:04;;;;;;;;;;;;;;;0.54;100.00;101240.34;6274091;22;19946;-80
2024/01/14 07:21:31;;;;;;;;;;;;;;;0.53;100.00;101234.34;6246786;22;19903;-80
2024/01/14 07:23:56;;;;;;;;;;;;;;;0.54;100.00;101238.69;6273919;22;19903;-80
2024/01/14 07:26:21;;;;;;;;;;;;;;;0.55;100.00;101234.44;6273891;22;19910;-81
2024/01/14 07:28:46;;;;;;;;;;;;;;;0.55;100.00;101239.56;6273909;22;20244;-81
2024/01/14 07:31:16;;;;;;;;;;;;;;;0.54;100.00;101243.81;6273972;22;19903;-81
2024/01/14 07:33:41;;;;;;;;;;;;;;;0.55;100.00;101239.56;6273915;22;20029;-80
2024/01/14 07:36:07;;;;;;;;;;;;;;;0.52;100.00;101236.03;6273959;22;20337;-81
2024/01/14 07:38:33;;;;;;;;;;;;;;;0.51;100.00;101231.69;6273829;22;19908;-80
2024/01/14 07:40:58;;;;;;;;;;;;;;;0.52;100.00;101232.56;6271991;22;19907;-81
2024/01/14 07:43:23;;;;;;;;;;;;;;;0.51;100.00;101229.13;6244793;22;20328;-80
2024/01/14 07:45:50;;;;;;;;;;;;;;;0.50;100.00;101229.00;6276640;22;19926;-81
2024/01/14 07:48:15;;;;;;;;;;;;;;;0.51;100.00;101234.25;6249156;22;19907;-80
2024/01/14 07:50:40;;;;;;;;;;;;;;;0.50;100.00;101237.56;6277427;22;20326;-81
2024/01/14 07:53:07;;;;;;;;;;;;;;;0.51;100.00;101247.06;6246533;22;20403;-81
2024/01/14 07:55:32;;;;;;;;;;;;;;;0.50;100.00;101235.00;6274842;22;19903;-81
2024/01/14 07:57:57;;;;;;;;;;;;;;;0.48;100.00;101234.03;6274656;22;19910;-80
2024/01/14 08:00:23;;;;;;;;;;;;;;;0.48;100.00;101230.59;6249155;22;19953;-81
2024/01/14 08:02:48;;;;;;;;;;;;;;;0.47;100.00;101229.66;6249737;22;19906;-81
2024/01/14 08:05:14;;;;;;;;;;;;;;;0.48;100.00;101233.16;6273483;22;20337;-81
2024/01/14 08:07:40;;;;;;;;;;;;;;;0.48;100.00;101228.03;6274182;22;19906;-81
2024/01/14 08:10:05;;;;;;;;;;;;;;;0.48;100.00;101226.34;6246646;22;19938;-81
2024/01/14 08:12:31;;;;;;;;;;;;;;;0.50;100.00;101223.88;6247794;22;19960;-81
2024/01/14 08:14:56;;;;;;;;;;;;;;;0.50;100.00;101222.19;6273053;22;19907;-81
2024/01/14 08:17:21;;;;;;;;;;;;;;;0.50;100.00;101227.31;6271792;22;19973;-81
2024/01/14 08:19:46;;;;;;;;;;;;;;;0.51;100.00;101235.94;6272782;22;19911;-80
2024/01/14 08:22:15;;;;;;;;;;;;;;;0.52;100.00;101230.91;6245898;22;19903;-81
2024/01/14 08:24:41;;;;;;;;;;;;;;;0.52;100.00;101219.72;6247185;22;19907;-81
2024/01/14 08:27:06;;;;;;;;;;;;;;;0.54;100.00;101231.00;6276107;22;20125;-81
2024/01/14 08:29:31;;;;;;;;;;;;;;;0.56;100.00;101225.97;6275472;22;19907;-81
2024/01/14 08:31:57;;;;;;;;;;;;;;;0.56;100.00;101231.13;6275879;22;19904;-81
2024/01/14 08:34:22;;;;;;;;;;;;;;;0.59;100.00;101237.31;6276000;22;19903;-81
2024/01/14 08:36:47;;;;;;;;;;;;;;;0.59;100.00;101232.19;6276445;22;19910;-80
2024/01/14 08:39:12;;;;;;;;;;;;;;;0.59;100.00;101228.75;6275794;22;19994;-80
2024/01/14 08:41:38;;;;;;;;;;;;;;;0.60;100.00;101231.44;6234747;23;19916;-80
2024/01/14 08:44:06;;;;;;;;;;;;;;;0.62;100.00;101228.97;6242503;23;19910;-80
2024/01/14 08:46:32;;;;;;;;;;;;;;;0.60;100.00;101217.72;6243202;23;19908;-81
2024/01/14 08:48:57;;;;;;;;;;;;;;;0.60;100.00;101223.72;6245918;23;20242;-80
2024/01/14 08:51:22;;;;;;;;;;;;;;;0.60;100.00;101218.59;6243714;23;19935;-81
2024/01/14 08:53:48;;;;;;;;;;;;;;;0.60;100.00;101218.59;6217031;23;20301;-80
2024/01/14 08:56:13;;;;;;;;;;;;;;;0.61;100.00;101217.84;6241071;22;19903;-81
2024/01/14 08:58:38;;;;;;;;;;;;;;;0.62;100.00;101211.94;6243641;23;20246;-81
2024/01/14 09:01:04;;;;;;;;;;;;;;;0.65;100.00;101218.91;6215458;23;19907;-80
2024/01/14 09:03:29;;;;;;;;;;;;;;;0.64;100.00;101223.16;6241093;23;20337;-80
2024/01/14 09:05:54;;;;;;;;;;;;;;;0.64;100.00;101210.34;6238696;23;20235;-80
2024/01/14 09:08:19;;;;;;;;;;;;;;;0.64;100.00;101217.16;6212519;23;19937;-80
2024/01/14 09:10:47;;;;;;;;;;;;;;;0.66;100.00;101224.16;6213799;23;19903;-81
2024/01/14 09:13:12;;;;;;;;;;;;;;;0.66;100.00;101213.91;6237978;23;20251;-81
2024/01/14 09:15:37;;;;;;;;;;;;;;;0.67;100.00;101210.56;6214785;23;20310;-81
2024/01/14 09:18:02;;;;;;;;;;;;;;;0.67;100.00;101204.56;6216139;23;19899;-81
2024/01/14 09:20:28;;;;;;;;;;;;;;;0.68;100.00;101206.31;6240970;23;19907;-80
2024/01/14 09:22:53;;;;;;;;;;;;;;;0.68;100.00;101206.31;6243331;23;19900;-81
2024/01/14 09:25:18;;;;;;;;;;;;;;;0.68;100.00;101203.75;6243424;23;19983;-81
2024/01/14 09:27:43;;;;;;;;;;;;;;;0.67;100.00;101195.16;6216377;23;19946;-81
2024/01/14 09:30:12;;;;;;;;;;;;;;;0.67;100.00;101194.28;6243307;23;19896;-81
2024/01/14 09:32:37;;;;;;;;;;;;;;;0.67;100.00;101190.03;6216596;23;19918;-81
2024/01/14 09:35:02;;;;;;;;;;;;;;;0.68;100.00;101189.25;6243666;23;19971;-81
2024/01/14 09:37:28;;;;;;;;;;;;;;;0.70;100.00;101184.25;6242348;23;19904;-78
2024/01/14 09:39:53;;;;;;;;;;;;;;;0.71;100.00;101188.59;6243381;23;19908;-78
2024/01/14 09:42:21;;;;;;;;;;;;;;;0.73;100.00;101183.56;6259594;22;19922;-78
2024/01/14 09:44:47;;;;;;;;;;;;;;;0.73;100.00;101179.31;6274228;22;19926;-78
2024/01/14 09:47:14;;;;;;;;;;;;;;;0.75;100.00;101176.84;6247728;22;20401;-78
2024/01/14 09:49:39;;;;;;;;;;;;;;;0.76;100.00;101173.50;6274540;22;19903;-78
2024/01/14 09:52:05;;;;;;;;;;;;;;;0.78;100.00;101165.16;6274913;22;19995;-78
2024/01/14 09:54:32;;;;;;;;;;;;;;;0.77;100.00;101176.19;6274978;22;20329;-79
2024/01/14 09:57:02;;;;;;;;;;;;;;;0.79;100.00;101172.03;6273700;22;19900;-78
2024/01/14 09:59:29;;;;;;;;;;;;;;;0.79;100.00;101174.59;6274036;22;19907;-78
2024/01/14 10:01:54;;;;;;;;;;;;;;;0.79;100.00;101171.16;6274297;22;19907;-79
2024/01/14 10:04:20;;;;;;;;;;;;;;;0.80;100.00;101176.38;6274899;22;20234;-78
2024/01/14 10:06:46;;;;;;;;;;;;;;;0.82;100.00;101174.81;6246504;22;19949;-78
2024/01/14 10:09:11;;;;;;;;;;;;;;;0.84;100.00;101173.25;6274611;22;20310;-78
2024/01/14 10:11:37;;;;;;;;;;;;;;;0.84;100.00;101173.25;6274267;22;19982;-78
2024/01/14 10:14:02;;;;;;;;;;;;;;;0.86;100.00;101176.78;6274142;22;19960;-78
2024/01/14 10:16:27;;;;;;;;;;;;;;;0.83;100.00;101162.88;6273197;22;19903;-78
2024/01/14 10:18:55;;;;;;;;;;;;;;;0.84;100.00;101155.28;6274153;22;19959;-78
2024/01/14 10:21:20;;;;;;;;;;;;;;;0.85;100.00;101154.53;6274197;22;20010;-78
2024/01/14 10:23:45;;;;;;;;;;;;;;;0.86;100.00;101155.41;6273855;22;19942;-78
2024/01/14 10:26:11;;;;;;;;;;;;;;;0.87;100.00;101157.19;6274729;22;19907;-78
2024/01/14 10:28:37;;;;;;;;;;;;;;;0.88;100.00;101142.66;6246679;22;19986;-78
2024/01/14 10:31:03;;;;;;;;;;;;;;;0.86;100.00;101143.44;6274606;22;19979;-78
2024/01/14 10:33:30;;;;;;;;;;;;;;;0.87;100.00;101136.66;6274260;22;19986;-78
2024/01/14 10:35:56;;;;;;;;;;;;;;;0.85;100.00;101134.00;6274705;22;19903;-79
2024/01/14 10:38:22;;;;;;;;;;;;;;;0.86;100.00;101138.31;6273938;22;19914;-77
2024/01/14 10:40:47;;;;;;;;;;;;;;;0.88;100.00;101129.84;6246875;22;19980;-77
2024/01/14 10:43:13;;;;;;;;;;;;;;;0.88;100.00;101124.72;6246285;22;19914;-78
2024/01/14 10:45:38;;;;;;;;;;;;;;;0.88;100.00;101119.59;6273641;22;20336;-78
2024/01/14 10:48:05;;;;;;;;;;;;;;;0.88;100.00;101119.59;6273903;22;19903;-78
2024/01/14 10:50:32;;;;;;;;;;;;;;;0.88;100.00;101117.00;6246189;22;19903;-78
2024/01/14 10:53:00;;;;;;;;;;;;;;;0.86;100.00;101110.09;6274367;22;19911;-78
2024/01/14 10:55:46;;;;;;;;;;;;;;;0.85;100.00;101113.47;6273680;22;19949;-78
2024/01/14 10:58:17;;;;;;;;;;;;;;;0.85;100.00;101102.31;6274125;22;19907;-78
2024/01/14 11:00:42;;;;;;;;;;;;;;;0.87;100.00;101093.06;6246124;22;19910;-77
2024/01/14 11:03:08;;;;;;;;;;;;;;;0.85;100.00;101090.38;6246518;22;19903;-77
2024/01/14 11:05:34;;;;;;;;;;;;;;;0.83;100.00;101089.38;6274006;22;19986;-77
2024/01/14 11:08:01;;;;;;;;;;;;;;;0.83;100.00;101074.00;6274055;22;19958;-77
2024/01/14 11:10:27;;;;;;;;;;;;;;;0.82;100.00;101079.91;6273373;22;20241;-78
2024/01/14 11:12:56;;;;;;;;;;;;;;;0.81;100.00;101074.66;6246755;22;20330;-78
2024/01/14 11:15:39;;;;;;;;;;;;;;;0.80;100.00;101068.66;6273590;22;19998;-78
2024/01/14 11:18:09;;;;;;;;;;;;;;;0.80;100.00;101068.66;6273599;22;19911;-78
2024/01/14 11:20:37;;;;;;;;;;;;;;;0.80;100.00;101073.78;6273698;22;19911;-78
2024/01/14 11:23:03;;;;;;;;;;;;;;;0.77;100.00;101064.97;6272982;22;19907;-78
2024/01/14 11:25:32;;;;;;;;;;;;;;;0.76;100.00;101060.66;6272962;22;19921;-78
2024/01/14 11:27:58;;;;;;;;;;;;;;;0.75;100.00;101057.19;6246067;22;20333;-79
2024/01/14 11:30:43;;;;;;;;;;;;;;;0.73;100.00;101056.22;6273474;22;19910;-79
2024/01/14 11:33:28;;;;;;;;;;;;;;;0.72;100.00;101040.72;6272376;22;19907;-79
2024/01/14 11:35:53;;;;;;;;;;;;;;;0.71;100.00;101038.94;6273519;22;20330;-79
2024/01/14 11:38:37;;;;;;;;;;;;;;;0.72;100.00;101033.91;6273411;22;19982;-79
2024/01/14 11:41:21;;;;;;;;;;;;;;;0.72;100.00;101027.91;6272982;22;19903;-78
2024/01/14 11:43:46;;;;;;;;;;;;;;;0.73;100.00;101029.69;6271959;22;19970;-79
2024/01/14 11:46:30;;;;;;;;;;;;;;;0.74;100.00;101024.66;6273423;22;19953;-79
2024/01/14 11:48:55;;;;;;;;;;;;;;;0.75;100.00;101028.97;6274061;22;19903;-79
2024/01/14 11:51:20;;;;;;;;;;;;;;;0.76;100.00;101024.75;6273947;22;20314;-78
2024/01/14 11:53:46;;;;;;;;;;;;;;;0.75;100.00;101013.59;6246397;22;19987;-78
2024/01/14 11:56:11;;;;;;;;;;;;;;;0.74;100.00;101013.50;6245806;22;19903;-79
2024/01/14 11:58:36;;;;;;;;;;;;;;;0.73;100.00;101006.59;6273302;22;20084;-79
2024/01/14 12:01:02;;;;;;;;;;;;;;;0.74;100.00;101011.84;6246411;22;19910;-79
2024/01/14 12:03:27;;;;;;;;;;;;;;;0.76;100.00;101000.00;6273665;22;20381;-78
2024/01/14 12:05:59;;;;;;;;;;;;;;;0.77;100.00;100990.59;6272988;22;19903;-78
2024/01/14 12:08:25;;;;;;;;;;;;;;;0.78;100.00;100987.25;6246530;22;20310;-78
2024/01/14 12:10:50;;;;;;;;;;;;;;;0.77;100.00;100981.25;6273123;22;19909;-78
2024/01/14 12:13:16;;;;;;;;;;;;;;;0.79;100.00;100979.66;6246420;22;19904;-78
2024/01/14 12:15:41;;;;;;;;;;;;;;;0.78;100.00;100965.09;6272038;22;19983;-78
2024/01/14 12:18:07;;;;;;;;;;;;;;;0.79;100.00;100963.41;6246125;22;19962;-79
2024/01/14 12:20:32;;;;;;;;;;;;;;;0.79;100.00;100963.41;6246276;22;20049;-79
2024/01/14 12:23:02;;;;;;;;;;;;;;;0.80;100.00;100960.06;6246468;22;19911;-78
2024/01/14 12:25:27;;;;;;;;;;;;;;;0.81;100.00;100956.69;6273239;22;19956;-78
2024/01/14 12:27:53;;;;;;;;;;;;;;;0.80;100.00;100949.78;6272888;22;20272;-77